WetterOnline ( https://www.wetteronline.de )

Wetter aktuell Allgäu (in 700m)

Aktuelles Wetter: Kempten (705m)

6-stündlich | Neueste Meldungen
Ortszeit Temperatur Wetter
Do, 28.05. 20:00 16.0° C bedeckt
Do, 28.05. 14:00 18.2° C wolkig
Do, 28.05. 8:00 10.2° C bewölkt
Do, 28.05. 2:00 6.4° C wolkig
Mi, 27.05. 20:00 17.5° C leicht bewölkt
Mi, 27.05. 14:00 17.8° C wolkenlos
Mi, 27.05. 8:00 10.3° C wolkenlos
Mi, 27.05. 2:00 6.9° C wolkenlos
Ortszeit Temperatur Wetter
Do, 28.05. 23:30 9.8° C fast wolkenlos
Do, 28.05. 23:20 9.8° C fast wolkenlos
Do, 28.05. 23:10 8.6° C wolkenlos
Do, 28.05. 23:00 8.8° C wolkenlos
Do, 28.05. 22:50 8.8° C wolkenlos
Do, 28.05. 22:40 9.4° C wolkenlos
Do, 28.05. 22:30 11.4° C wolkenlos
Do, 28.05. 22:00 11.8° C leicht bewölkt
Do, 28.05. 21:30 13.9° C bewölkt
Do, 28.05. 21:00 14.7° C bedeckt
Do, 28.05. 20:30 15.4° C bedeckt
Do, 28.05. 20:00 16.0° C bedeckt
Ortszeit Relative Feuchte Sichtweite
Do, 28.05. 20:00 45% 45 km
Do, 28.05. 14:00 47% 26 km
Do, 28.05. 8:00 71% 40 km
Do, 28.05. 2:00 89% 25 km
Mi, 27.05. 20:00 37% 60 km
Mi, 27.05. 14:00 32% 13 km
Mi, 27.05. 8:00 74% 20 km
Mi, 27.05. 2:00 83% 25 km
Ortszeit Relative Feuchte Sichtweite
Do, 28.05. 23:30 71% 35 km
Do, 28.05. 23:20 71% -
Do, 28.05. 23:10 76% -
Do, 28.05. 23:00 74% 50 km
Do, 28.05. 22:50 74% -
Do, 28.05. 22:40 71% -
Do, 28.05. 22:30 57% 45 km
Do, 28.05. 22:00 57% 55 km
Do, 28.05. 21:30 48% 50 km
Do, 28.05. 21:00 46% 55 km
Do, 28.05. 20:30 42% 60 km
Do, 28.05. 20:00 45% 45 km
Ortszeit Niederschlagsmenge Niederschlagsart
Do, 28.05. 20:00 0.1 l/m2 in 12 Std. Regen
Do, 28.05. 14:00 0.1 l/m2 in 6 Std. Regen
Do, 28.05. 8:00 0.0 l/m2 in 12 Std. -
Do, 28.05. 2:00 0.0 l/m2 in 6 Std. -
Mi, 27.05. 20:00 0.0 l/m2 in 12 Std. -
Mi, 27.05. 14:00 0.0 l/m2 in 6 Std. -
Mi, 27.05. 8:00 0.0 l/m2 in 12 Std. -
Mi, 27.05. 2:00 0.0 l/m2 in 6 Std. -
Ortszeit Niederschlagsmenge Niederschlagsart
Do, 28.05. 23:30 0.0 l/m2 in 1 Std. -
Do, 28.05. 23:20 keine Meldung -
Do, 28.05. 23:10 keine Meldung -
Do, 28.05. 23:00 0.0 l/m2 in 1 Std. -
Do, 28.05. 22:50 keine Meldung -
Do, 28.05. 22:40 keine Meldung -
Do, 28.05. 22:30 0.0 l/m2 in 1 Std. -
Do, 28.05. 22:00 0.0 l/m2 in 1 Std. -
Do, 28.05. 21:30 0.0 l/m2 in 1 Std. -
Do, 28.05. 21:00 0.0 l/m2 in 1 Std. -
Do, 28.05. 20:30 0.0 l/m2 in 1 Std. -
Do, 28.05. 20:00 0.0 l/m2 in 1 Std. Regen
Ortszeit Stärke Spitze Richtung
km/h Bft. km/h Grad Sektor
Do, 28.05. 20:00 9 2 28 30° NO
Do, 28.05. 14:00 7 2 25 320° NW
Do, 28.05. 8:00 6 1 13 130° SO
Do, 28.05. 2:00 7 2 14 110° O
Mi, 27.05. 20:00 9 2 30 20° N
Mi, 27.05. 14:00 11 2 29 40° NO
Mi, 27.05. 8:00 0 0 7 - -
Mi, 27.05. 2:00 4 1 18 10° N
Ortszeit Stärke Spitze Richtung
km/h Bft. km/h Grad Sektor
Do, 28.05. 23:30 7 2 11 30° NO
Do, 28.05. 23:20 7 2 - 30° NO
Do, 28.05. 23:10 4 1 - 40° NO
Do, 28.05. 23:00 4 1 11 30° NO
Do, 28.05. 22:50 4 1 - 30° NO
Do, 28.05. 22:40 4 1 - 30° NO
Do, 28.05. 22:30 6 1 9 30° NO
Do, 28.05. 22:00 4 1 14 80° O
Do, 28.05. 21:30 6 1 15 40° NO
Do, 28.05. 21:00 7 2 22 30° NO
Do, 28.05. 20:30 7 2 22 20° N
Do, 28.05. 20:00 9 2 20 30° NO
Ortszeit Untergrenze Bedeckung Gattung
total tief tief mittel hoch
Do, 28.05. 20:00 1800 m 8/8 8/8 - - -
Do, 28.05. 14:00 1500 m 5/8 5/8 - - -
Do, 28.05. 8:00 2100 m 8/8 6/8 - - -
Do, 28.05. 2:00 9000 m 7/8 0/8 - - -
Mi, 27.05. 20:00 10500 m 3/8 0/8 - - -
Mi, 27.05. 14:00 - 0/8 0/8 - - -
Mi, 27.05. 8:00 8400 m 0/8 0/8 - - -
Mi, 27.05. 2:00 - 0/8 0/8 - - -
Ortszeit Bedeckungsgrad in Achtel und Wolkenuntergrenze
Do, 28.05. 23:30 1(2100m)
Do, 28.05. 23:20 1(2100m)
Do, 28.05. 23:10 keine Wolken
Do, 28.05. 23:00 keine Wolken
Do, 28.05. 22:50 keine Wolken
Do, 28.05. 22:40 keine Wolken
Do, 28.05. 22:30 1(1800m)
Do, 28.05. 22:00 2(2100m)
Do, 28.05. 21:30 7(1800m)
Do, 28.05. 21:00 8(1800m)
Do, 28.05. 20:30 8(1800m)
Do, 28.05. 20:00 8(1800m)
Ortszeit Luftdruck NN (hPa) Tendenz (hPa in 3 Std.)
Do, 28.05. 20:00 1025 - 0,5
Do, 28.05. 14:00 1025 - 0,9
Do, 28.05. 8:00 1029 - 0,2
Do, 28.05. 2:00 1032 - 0,5
Mi, 27.05. 20:00 1028 - 0,1
Mi, 27.05. 14:00 1029 - 0,8
Mi, 27.05. 8:00 1033 0,0
Mi, 27.05. 2:00 1035 - 0,5
Ortszeit Luftdruck NN (hPa) Tendenz (hPa in 3 Std.)
Do, 28.05. 23:30 1027 + 0,5
Do, 28.05. 23:20 1027 keine Meldung
Do, 28.05. 23:10 1027 keine Meldung
Do, 28.05. 23:00 1027 + 0,5
Do, 28.05. 22:50 1027 keine Meldung
Do, 28.05. 22:40 1027 keine Meldung
Do, 28.05. 22:30 1027 + 0,7
Do, 28.05. 22:00 1027 + 0,7
Do, 28.05. 21:30 1026 + 0,4
Do, 28.05. 21:00 1025 0,0
Do, 28.05. 20:30 1025 - 0,2
Do, 28.05. 20:00 1025 - 0,5
Ortszeit Schneehöhe (cm)
Do, 28.05. 20:00 -
Do, 28.05. 14:00 -
Do, 28.05. 8:00 -
Do, 28.05. 2:00 -
Mi, 27.05. 20:00 -
Mi, 27.05. 14:00 -
Mi, 27.05. 8:00 -
Mi, 27.05. 2:00 -
Ortszeit Schneehöhe (cm)
Do, 28.05. 23:30 -
Do, 28.05. 23:20 -
Do, 28.05. 23:10 -
Do, 28.05. 23:00 -
Do, 28.05. 22:50 -
Do, 28.05. 22:40 -
Do, 28.05. 22:30 -
Do, 28.05. 22:00 -
Do, 28.05. 21:30 -
Do, 28.05. 21:00 -
Do, 28.05. 20:30 -
Do, 28.05. 20:00 -
Link zu dieser Seite / Seite empfehlen

Das Wetter in ...